createdAt,value
2022-09-28T00:00:58.931Z,3.13
2022-09-28T00:03:25.434Z,3.20
2022-09-28T00:05:51.885Z,3.90
2022-09-28T00:08:18.504Z,3.63
2022-09-28T00:10:46.370Z,3.63
2022-09-28T00:13:13.234Z,3.80
2022-09-28T00:15:39.786Z,3.37
2022-09-28T00:18:06.239Z,3.80
2022-09-28T00:20:32.937Z,3.37
2022-09-28T00:22:59.571Z,3.77
2022-09-28T00:25:26.128Z,3.80
2022-09-28T00:27:52.673Z,4.30
2022-09-28T00:30:19.196Z,4.20
2022-09-28T00:32:45.728Z,4.07
2022-09-28T00:35:12.362Z,4.30
2022-09-28T00:37:39.311Z,4.13
2022-09-28T00:40:06.358Z,4.77
2022-09-28T00:42:32.868Z,4.93
2022-09-28T00:44:59.925Z,4.97
2022-09-28T00:47:52.064Z,4.70
2022-09-28T00:50:25.968Z,4.73
2022-09-28T00:53:04.795Z,5.47
2022-09-28T00:55:40.227Z,5.37
2022-09-28T00:58:09.668Z,5.30
2022-09-28T01:00:36.289Z,5.27
2022-09-28T01:03:04.048Z,5.77
2022-09-28T01:05:30.682Z,5.13
2022-09-28T01:07:57.661Z,5.10
2022-09-28T01:10:24.468Z,5.37
2022-09-28T01:12:51.022Z,5.33
2022-09-28T01:15:17.565Z,5.00
2022-09-28T01:17:54.375Z,5.30
2022-09-28T01:20:33.241Z,4.70
2022-09-28T01:23:19.132Z,4.97
2022-09-28T01:26:08.971Z,4.97
2022-09-28T01:28:35.680Z,4.47
2022-09-28T01:31:13.969Z,5.30
2022-09-28T01:33:52.177Z,4.40
2022-09-28T01:36:23.835Z,4.30
2022-09-28T01:38:53.679Z,4.67
2022-09-28T01:41:21.134Z,4.60
2022-09-28T01:43:53.539Z,4.33
2022-09-28T01:46:37.945Z,4.60
2022-09-28T01:49:12.828Z,4.27
2022-09-28T01:51:42.866Z,4.30
2022-09-28T01:54:15.233Z,4.27
2022-09-28T01:56:49.599Z,4.50
2022-09-28T01:59:20.536Z,4.40
2022-09-28T02:01:56.744Z,4.50
2022-09-28T02:04:27.009Z,4.63
2022-09-28T02:07:08.203Z,4.83
2022-09-28T02:09:44.781Z,5.37
2022-09-28T02:12:29.750Z,5.60
2022-09-28T02:15:02.381Z,5.57
2022-09-28T02:17:29.176Z,5.67
2022-09-28T02:19:56.081Z,6.27
2022-09-28T02:22:29.141Z,6.17
2022-09-28T02:25:12.120Z,6.27
2022-09-28T02:28:00.968Z,7.40
2022-09-28T02:30:28.168Z,7.40
2022-09-28T02:32:57.823Z,8.57
2022-09-28T02:35:24.485Z,8.13
2022-09-28T02:37:51.356Z,8.87
2022-09-28T02:40:26.387Z,8.13
2022-09-28T02:42:55.001Z,9.00
2022-09-28T02:45:39.734Z,8.47
2022-09-28T02:49:00.200Z,9.03
2022-09-28T02:52:13.622Z,9.97
2022-09-28T02:55:05.661Z,9.40
2022-09-28T02:57:42.459Z,10.37
2022-09-28T03:00:12.343Z,10.80
2022-09-28T03:02:59.484Z,11.10
2022-09-28T03:05:34.459Z,11.23
2022-09-28T03:08:09.767Z,12.53
2022-09-28T03:10:46.909Z,13.20
2022-09-28T03:13:14.097Z,13.03
2022-09-28T03:15:45.171Z,14.20
2022-09-28T03:18:14.546Z,13.30
2022-09-28T03:20:41.045Z,14.20
2022-09-28T03:23:23.815Z,14.23
2022-09-28T03:25:51.952Z,14.50
2022-09-28T03:28:18.470Z,15.03
2022-09-28T03:30:45.055Z,14.90
2022-09-28T03:33:11.657Z,14.87
2022-09-28T03:35:38.124Z,15.80
2022-09-28T03:38:04.752Z,15.37
2022-09-28T03:40:31.336Z,15.23
2022-09-28T03:42:59.754Z,16.40
2022-09-28T03:45:26.420Z,16.67
2022-09-28T03:47:52.935Z,16.17
2022-09-28T03:50:19.554Z,16.60
2022-09-28T03:52:46.011Z,15.80
2022-09-28T03:55:12.453Z,15.77
2022-09-28T03:57:38.970Z,15.30
2022-09-28T04:00:06.255Z,15.63
2022-09-28T04:02:34.864Z,14.33
2022-09-28T04:05:02.017Z,16.73
2022-09-28T04:07:31.009Z,17.13
2022-09-28T04:09:58.257Z,17.63
2022-09-28T04:12:24.897Z,18.23
2022-09-28T04:14:51.562Z,16.37
2022-09-28T04:17:18.175Z,15.77
2022-09-28T04:19:44.806Z,15.57
2022-09-28T04:22:11.442Z,15.53
2022-09-28T04:24:38.162Z,14.90
2022-09-28T04:27:23.363Z,14.43
2022-09-28T04:29:49.896Z,15.30
2022-09-28T04:32:16.540Z,13.87
2022-09-28T04:34:44.381Z,14.63
2022-09-28T04:37:11.244Z,14.73
2022-09-28T04:39:37.980Z,14.07
2022-09-28T04:42:05.187Z,15.27
2022-09-28T04:44:31.716Z,16.00
2022-09-28T04:47:02.893Z,15.63
2022-09-28T04:49:31.801Z,15.67
2022-09-28T04:51:58.476Z,15.13
2022-09-28T04:54:24.983Z,16.20
2022-09-28T04:56:53.053Z,16.73
2022-09-28T04:59:19.737Z,16.60
2022-09-28T05:01:47.669Z,16.17
2022-09-28T05:04:14.298Z,17.90
2022-09-28T05:06:40.949Z,19.07
2022-09-28T05:09:09.620Z,20.67
2022-09-28T05:11:36.206Z,21.00
2022-09-28T05:14:03.041Z,25.60
2022-09-28T05:16:31.268Z,26.27
2022-09-28T05:18:57.812Z,25.67
2022-09-28T05:21:26.528Z,25.87
2022-09-28T05:23:56.044Z,25.67
2022-09-28T05:26:23.142Z,26.43
2022-09-28T05:28:49.779Z,25.83
2022-09-28T05:31:16.450Z,26.83
2022-09-28T05:33:43.112Z,26.23
2022-09-28T05:36:11.581Z,27.27
2022-09-28T05:38:38.164Z,28.50
2022-09-28T05:41:06.681Z,28.20
2022-09-28T05:43:33.615Z,27.27
2022-09-28T05:46:00.617Z,28.00
2022-09-28T05:48:28.223Z,28.60
2022-09-28T05:50:54.942Z,28.60
2022-09-28T05:53:21.837Z,28.80
2022-09-28T05:55:48.506Z,28.87
2022-09-28T05:58:15.212Z,27.90
2022-09-28T06:00:41.692Z,28.13
2022-09-28T06:03:12.898Z,26.63
2022-09-28T06:05:39.758Z,26.53
2022-09-28T06:08:08.305Z,26.70
2022-09-28T06:10:35.063Z,25.77
2022-09-28T06:13:01.880Z,24.43
2022-09-28T06:15:30.836Z,34.27
2022-09-28T06:18:01.052Z,26.13
2022-09-28T06:20:29.885Z,24.23
2022-09-28T06:22:56.350Z,25.03
2022-09-28T06:25:23.712Z,24.70
2022-09-28T06:27:55.404Z,25.13
2022-09-28T06:30:22.701Z,23.90
2022-09-28T06:32:52.773Z,23.00
2022-09-28T06:35:19.235Z,22.90
2022-09-28T06:37:46.485Z,23.53
2022-09-28T06:40:13.096Z,23.70
2022-09-28T06:42:39.522Z,22.80
2022-09-28T06:45:07.199Z,23.43
2022-09-28T06:47:33.816Z,24.77
2022-09-28T06:50:00.554Z,21.73
2022-09-28T06:52:27.115Z,22.83
2022-09-28T06:54:53.617Z,21.13
2022-09-28T06:57:20.106Z,22.10
2022-09-28T06:59:46.557Z,20.97
2022-09-28T07:02:14.560Z,22.10
2022-09-28T07:04:42.530Z,22.33
2022-09-28T07:07:10.605Z,24.90
2022-09-28T07:09:42.226Z,22.63
2022-09-28T07:12:13.561Z,22.93
2022-09-28T07:14:47.706Z,23.90
2022-09-28T07:17:15.213Z,22.43
2022-09-28T07:19:42.160Z,44.00
2022-09-28T07:22:08.732Z,29.07
2022-09-28T07:24:35.171Z,24.40
2022-09-28T07:27:05.160Z,25.23
2022-09-28T07:29:31.570Z,24.20
2022-09-28T07:31:58.030Z,25.23
2022-09-28T07:34:24.789Z,25.40
2022-09-28T07:36:58.788Z,26.70
2022-09-28T07:39:25.496Z,27.17
2022-09-28T07:41:56.716Z,31.77
2022-09-28T07:44:26.214Z,29.20
2022-09-28T07:46:52.798Z,27.10
2022-09-28T07:49:19.352Z,28.10
2022-09-28T07:51:46.071Z,28.90
2022-09-28T07:54:12.597Z,28.97
2022-09-28T07:56:39.106Z,30.97
2022-09-28T07:59:05.609Z,31.37
2022-09-28T08:01:32.056Z,30.73
2022-09-28T08:03:58.555Z,30.57
2022-09-28T08:06:25.379Z,30.63
2022-09-28T08:08:56.167Z,29.77
2022-09-28T08:11:22.777Z,31.77
2022-09-28T08:13:49.618Z,31.13
2022-09-28T08:16:16.208Z,31.90
2022-09-28T08:18:42.756Z,31.67
2022-09-28T08:21:28.454Z,31.73
2022-09-28T08:23:54.891Z,31.10
2022-09-28T08:26:21.763Z,29.63
2022-09-28T08:28:48.416Z,31.87
2022-09-28T08:31:14.945Z,28.00
2022-09-28T08:33:42.216Z,31.80
2022-09-28T08:36:09.966Z,30.63
2022-09-28T08:38:36.621Z,31.07
2022-09-28T08:41:18.323Z,31.17
2022-09-28T08:44:24.160Z,30.63
2022-09-28T08:46:58.518Z,29.97
2022-09-28T08:49:36.372Z,29.57
2022-09-28T08:52:08.418Z,29.63
2022-09-28T08:55:01.127Z,29.03
2022-09-28T08:57:31.114Z,27.17
2022-09-28T08:59:59.873Z,27.47
2022-09-28T09:02:33.411Z,26.60
2022-09-28T09:05:03.604Z,27.63
2022-09-28T09:07:42.592Z,27.80
2022-09-28T09:10:46.701Z,28.10
2022-09-28T09:13:22.100Z,25.40
2022-09-28T09:15:55.277Z,24.53
2022-09-28T09:18:42.603Z,23.40
2022-09-28T09:21:22.866Z,21.67
2022-09-28T09:23:56.869Z,20.13
2022-09-28T09:26:39.073Z,20.03
2022-09-28T09:29:31.796Z,18.70
2022-09-28T09:32:04.422Z,24.07
2022-09-28T09:34:31.003Z,17.37
2022-09-28T09:37:18.409Z,17.30
2022-09-28T09:39:59.497Z,17.73
2022-09-28T09:43:03.936Z,17.07
2022-09-28T09:45:36.767Z,16.23
2022-09-28T09:48:07.515Z,17.30
2022-09-28T09:50:42.833Z,15.90
2022-09-28T09:53:30.378Z,16.83
2022-09-28T09:56:02.717Z,17.40
2022-09-28T09:58:30.414Z,15.90
2022-09-28T10:01:04.349Z,15.93
2022-09-28T10:03:33.463Z,16.10
2022-09-28T10:06:09.633Z,16.10
2022-09-28T10:08:41.257Z,13.80
2022-09-28T10:11:20.010Z,13.53
2022-09-28T10:13:49.816Z,13.23
2022-09-28T10:16:18.616Z,11.83
2022-09-28T10:18:45.342Z,13.00
2022-09-28T10:21:14.113Z,13.43
2022-09-28T10:23:41.740Z,10.73
2022-09-28T10:26:37.535Z,11.23
2022-09-28T10:29:06.496Z,9.90
2022-09-28T10:31:34.195Z,10.33
2022-09-28T10:34:00.704Z,8.20
2022-09-28T10:36:28.071Z,9.27
2022-09-28T10:38:55.934Z,8.33
2022-09-28T10:41:22.981Z,7.73
2022-09-28T10:44:10.790Z,5.73
2022-09-28T10:46:38.777Z,7.17
2022-09-28T10:49:12.565Z,5.60
2022-09-28T10:51:51.657Z,5.40
2022-09-28T10:54:29.851Z,5.03
2022-09-28T10:56:58.062Z,4.73
2022-09-28T10:59:24.685Z,4.43
2022-09-28T11:01:55.164Z,4.67
2022-09-28T11:04:23.552Z,4.27
2022-09-28T11:06:50.584Z,4.17
2022-09-28T11:09:29.786Z,3.57
2022-09-28T11:11:58.689Z,4.03
2022-09-28T11:14:27.659Z,5.13
2022-09-28T11:17:30.992Z,4.23
2022-09-28T11:20:00.180Z,4.37
2022-09-28T11:22:30.053Z,3.90
2022-09-28T11:25:18.497Z,4.23
2022-09-28T11:27:51.229Z,4.23
2022-09-28T11:30:38.691Z,3.97
2022-09-28T11:33:17.553Z,3.37
2022-09-28T11:35:53.936Z,2.80
2022-09-28T11:38:36.107Z,3.17
2022-09-28T11:41:17.715Z,2.97
2022-09-28T11:44:19.344Z,3.00
2022-09-28T11:46:52.136Z,3.20
2022-09-28T11:49:36.553Z,4.00
2022-09-28T11:52:27.668Z,3.80
2022-09-28T11:54:56.069Z,4.20
2022-09-28T11:57:27.035Z,5.00
2022-09-28T12:00:20.576Z,12.50
2022-09-28T12:02:53.764Z,6.30
2022-09-28T12:05:40.390Z,5.73
2022-09-28T12:08:20.685Z,6.00
2022-09-28T12:11:09.809Z,6.37
2022-09-28T12:13:44.576Z,5.83
2022-09-28T12:19:14.461Z,5.70
2022-09-28T12:21:45.089Z,5.67
2022-09-28T12:24:31.303Z,5.53
2022-09-28T12:27:04.222Z,5.67
2022-09-28T12:29:44.421Z,4.90
2022-09-28T12:32:26.031Z,4.90
2022-09-28T12:34:52.514Z,5.07
2022-09-28T12:37:38.563Z,4.17
2022-09-28T12:40:18.082Z,4.73
2022-09-28T12:43:11.046Z,4.77
2022-09-28T12:46:06.793Z,5.10
2022-09-28T12:48:57.200Z,4.60
2022-09-28T12:51:52.342Z,5.10
2022-09-28T12:55:04.006Z,4.67
2022-09-28T12:57:38.264Z,5.20
2022-09-28T13:00:06.832Z,5.40
2022-09-28T13:02:45.395Z,4.97
2022-09-28T13:05:40.832Z,5.13
2022-09-28T13:08:33.604Z,4.90
2022-09-28T13:11:09.668Z,4.17
2022-09-28T13:14:02.152Z,4.60
2022-09-28T13:16:56.159Z,3.90
2022-09-28T13:19:49.887Z,4.00
2022-09-28T13:22:31.562Z,7.10
2022-09-28T13:24:59.966Z,4.70
2022-09-28T13:27:33.944Z,4.40
2022-09-28T13:30:03.568Z,3.93
2022-09-28T13:32:31.540Z,4.33
2022-09-28T13:34:58.980Z,4.40
2022-09-28T13:37:26.366Z,4.23
2022-09-28T13:39:52.912Z,3.83
2022-09-28T13:42:35.348Z,4.60
2022-09-28T13:45:20.441Z,5.10
2022-09-28T13:48:02.434Z,4.50
2022-09-28T13:50:59.781Z,4.80
2022-09-28T13:53:41.677Z,4.73
2022-09-28T13:56:36.127Z,3.87
2022-09-28T13:59:21.039Z,5.23
2022-09-28T14:01:58.126Z,7.87
2022-09-28T14:05:00.486Z,18.90
2022-09-28T14:07:36.179Z,4.87
2022-09-28T14:10:24.872Z,4.67
2022-09-28T14:12:52.535Z,3.77
2022-09-28T14:15:31.318Z,3.60
2022-09-28T14:18:16.169Z,3.60
2022-09-28T14:20:51.712Z,3.20
2022-09-28T14:23:29.257Z,3.93
2022-09-28T14:26:27.698Z,4.10
2022-09-28T14:29:05.220Z,3.80
2022-09-28T14:31:33.930Z,3.50
2022-09-28T14:34:01.562Z,3.77
2022-09-28T14:36:54.861Z,3.73
2022-09-28T14:39:51.952Z,3.70
2022-09-28T14:42:21.921Z,4.20
2022-09-28T14:45:05.226Z,3.37
2022-09-28T14:47:44.142Z,4.17
2022-09-28T14:50:25.394Z,3.83
2022-09-28T14:52:56.059Z,3.73
2022-09-28T14:55:35.811Z,3.40
2022-09-28T14:58:04.398Z,5.17
2022-09-28T15:00:32.067Z,6.53
2022-09-28T15:03:05.957Z,6.13
2022-09-28T15:05:42.645Z,5.40
2022-09-28T15:08:10.543Z,6.43
2022-09-28T15:10:39.746Z,5.33
2022-09-28T15:13:18.411Z,4.40
2022-09-28T15:15:50.371Z,2.97
2022-09-28T15:18:35.861Z,2.70
2022-09-28T15:21:03.159Z,2.73
2022-09-28T15:23:40.725Z,3.17
2022-09-28T15:26:21.486Z,2.93
2022-09-28T15:28:48.295Z,3.03
2022-09-28T15:31:20.500Z,6.70
2022-09-28T15:34:06.072Z,3.80
2022-09-28T15:36:38.912Z,3.70
2022-09-28T15:39:34.261Z,3.00
2022-09-28T15:42:00.835Z,3.50
2022-09-28T15:44:37.583Z,2.97
2022-09-28T15:47:10.926Z,3.20
2022-09-28T15:49:41.296Z,2.80
2022-09-28T15:52:22.957Z,2.60
2022-09-28T15:54:49.651Z,2.60
2022-09-28T15:57:32.905Z,2.87
2022-09-28T16:00:00.957Z,5.97
2022-09-28T16:02:27.764Z,4.93
2022-09-28T16:04:56.341Z,6.07
2022-09-28T16:07:25.997Z,4.77
2022-09-28T16:10:14.018Z,2.33
2022-09-28T16:12:41.669Z,2.30
2022-09-28T16:15:28.034Z,2.07
2022-09-28T16:18:00.730Z,2.70
2022-09-28T16:20:34.128Z,2.80
2022-09-28T16:23:09.602Z,2.40
2022-09-28T16:25:37.635Z,2.20
2022-09-28T16:28:05.310Z,2.13
2022-09-28T16:30:34.382Z,2.20
2022-09-28T16:33:06.736Z,2.10
2022-09-28T16:35:50.647Z,2.00
2022-09-28T16:38:18.602Z,2.10
2022-09-28T16:40:49.403Z,1.80
2022-09-28T16:43:27.096Z,1.63
2022-09-28T16:45:59.262Z,1.60
2022-09-28T16:48:27.010Z,2.07
2022-09-28T16:50:53.574Z,1.70
2022-09-28T16:53:39.118Z,1.50
2022-09-28T16:56:07.037Z,1.50
2022-09-28T16:58:33.725Z,1.73
2022-09-28T17:01:01.069Z,1.70
2022-09-28T17:03:28.666Z,1.90
2022-09-28T17:05:55.723Z,1.90
2022-09-28T17:08:24.141Z,1.90
2022-09-28T17:11:17.996Z,1.67
2022-09-28T17:13:47.195Z,1.93
2022-09-28T17:16:17.753Z,1.67
2022-09-28T17:18:46.088Z,1.80
2022-09-28T17:21:20.558Z,2.00
2022-09-28T17:23:48.675Z,1.93
2022-09-28T17:26:31.578Z,1.90
2022-09-28T17:28:59.557Z,1.80
2022-09-28T17:31:26.531Z,2.00
2022-09-28T17:33:54.232Z,1.90
2022-09-28T17:36:21.579Z,1.93
2022-09-28T17:38:49.210Z,1.97
2022-09-28T17:41:20.430Z,1.73
2022-09-28T17:43:47.337Z,1.70
2022-09-28T17:46:22.842Z,1.80
2022-09-28T17:48:49.847Z,1.70
2022-09-28T17:51:16.397Z,1.93
2022-09-28T17:53:43.084Z,1.97
2022-09-28T17:56:09.925Z,2.00
2022-09-28T17:58:36.727Z,2.20
2022-09-28T18:01:03.192Z,2.20
2022-09-28T18:03:29.837Z,2.70
2022-09-28T18:06:05.011Z,2.47
2022-09-28T18:08:31.580Z,2.80
2022-09-28T18:10:58.292Z,2.70
2022-09-28T18:13:25.464Z,2.90
2022-09-28T18:15:52.586Z,2.97
2022-09-28T18:18:19.116Z,2.87
2022-09-28T18:20:45.748Z,3.40
2022-09-28T18:23:12.312Z,2.73
2022-09-28T18:25:43.521Z,2.70
2022-09-28T18:28:11.101Z,3.00
2022-09-28T18:30:42.394Z,2.63
2022-09-28T18:33:09.887Z,2.50
2022-09-28T18:35:36.938Z,2.97
2022-09-28T18:38:05.509Z,3.13
2022-09-28T18:40:33.941Z,2.80
2022-09-28T18:43:00.749Z,2.40
2022-09-28T18:45:27.282Z,2.53
2022-09-28T18:47:53.814Z,2.60
2022-09-28T18:50:20.579Z,2.60
2022-09-28T18:52:47.384Z,2.60
2022-09-28T18:55:14.028Z,2.50
2022-09-28T18:57:41.896Z,2.90
2022-09-28T19:00:10.814Z,2.93
2022-09-28T19:02:37.625Z,2.87
2022-09-28T19:05:07.230Z,2.77
2022-09-28T19:07:34.118Z,2.83
2022-09-28T19:10:00.663Z,3.03
2022-09-28T19:12:27.262Z,2.83
2022-09-28T19:14:53.740Z,3.00
2022-09-28T19:17:20.343Z,2.97
2022-09-28T19:19:46.852Z,2.87
2022-09-28T19:22:13.339Z,2.60
2022-09-28T19:24:39.983Z,2.90
2022-09-28T19:27:06.419Z,2.70
2022-09-28T19:29:33.068Z,3.10
2022-09-28T19:31:59.620Z,2.70
2022-09-28T19:34:29.904Z,3.30
2022-09-28T19:36:57.062Z,2.70
2022-09-28T19:39:23.564Z,3.20
2022-09-28T19:41:51.467Z,3.00
2022-09-28T19:44:27.667Z,7.63
2022-09-28T19:46:56.379Z,5.90
2022-09-28T19:49:24.360Z,7.13
2022-09-28T19:52:14.159Z,4.70
2022-09-28T19:55:00.970Z,3.53
2022-09-28T19:57:30.144Z,2.63
2022-09-28T20:00:01.987Z,3.33
2022-09-28T20:02:29.371Z,3.43
2022-09-28T20:04:56.051Z,3.20
2022-09-28T20:07:22.622Z,3.40
2022-09-28T20:09:49.157Z,2.60
2022-09-28T20:12:15.666Z,2.90
2022-09-28T20:14:42.218Z,2.90
2022-09-28T20:17:09.352Z,2.67
2022-09-28T20:19:36.165Z,3.13
2022-09-28T20:22:03.130Z,2.97
2022-09-28T20:24:30.075Z,3.00
2022-09-28T20:26:56.831Z,2.80
2022-09-28T20:29:24.380Z,3.17
2022-09-28T20:31:51.744Z,3.07
2022-09-28T20:34:18.435Z,3.10
2022-09-28T20:36:44.870Z,2.70
2022-09-28T20:39:12.000Z,2.83
2022-09-28T20:41:38.579Z,2.60
2022-09-28T20:44:06.506Z,2.60
2022-09-28T20:46:35.053Z,2.87
2022-09-28T20:49:02.027Z,2.73
2022-09-28T20:51:28.756Z,6.23
2022-09-28T20:53:56.974Z,6.03
2022-09-28T20:56:37.932Z,3.33
2022-09-28T20:59:09.431Z,3.10
2022-09-28T21:01:36.024Z,3.00
2022-09-28T21:04:04.210Z,2.90
2022-09-28T21:06:36.581Z,3.13
2022-09-28T21:09:04.672Z,3.20
2022-09-28T21:11:34.409Z,3.00
2022-09-28T21:14:03.286Z,3.50
2022-09-28T21:16:31.658Z,3.00
2022-09-28T21:18:58.707Z,6.57
2022-09-28T21:21:26.088Z,5.87
2022-09-28T21:23:56.776Z,4.50
2022-09-28T21:26:25.276Z,3.33
2022-09-28T21:29:03.143Z,3.10
2022-09-28T21:31:32.837Z,3.17
2022-09-28T21:33:59.509Z,3.17
2022-09-28T21:36:26.094Z,3.63
2022-09-28T21:38:54.316Z,3.37
2022-09-28T21:41:20.794Z,3.10
2022-09-28T21:43:47.358Z,3.33
2022-09-28T21:46:14.119Z,3.40
2022-09-28T21:51:32.299Z,3.80
2022-09-28T21:56:49.843Z,3.87
2022-09-28T21:59:16.428Z,3.27
2022-09-28T22:01:44.232Z,3.60
2022-09-28T22:04:11.011Z,3.97
2022-09-28T22:06:37.977Z,3.67
2022-09-28T22:09:05.423Z,3.70
2022-09-28T22:11:31.981Z,3.77
2022-09-28T22:13:59.963Z,3.50
2022-09-28T22:16:31.852Z,3.70
2022-09-28T22:18:59.272Z,4.17
2022-09-28T22:21:32.835Z,3.60
2022-09-28T22:26:54.930Z,3.60
2022-09-28T22:29:21.640Z,3.27
2022-09-28T22:31:49.009Z,3.50
2022-09-28T22:34:15.442Z,4.00
2022-09-28T22:36:41.989Z,3.50
2022-09-28T22:39:08.641Z,4.07
2022-09-28T22:41:35.484Z,3.87
2022-09-28T22:44:02.017Z,3.97
2022-09-28T22:46:31.906Z,3.77
2022-09-28T22:48:59.200Z,4.07
2022-09-28T22:51:27.465Z,4.00
2022-09-28T22:56:45.009Z,3.83
2022-09-28T22:59:11.817Z,3.77
2022-09-28T23:01:38.705Z,4.57
2022-09-28T23:04:05.851Z,4.77
2022-09-28T23:06:33.242Z,4.20
2022-09-28T23:09:00.423Z,4.37
2022-09-28T23:11:27.879Z,4.73
2022-09-28T23:13:56.674Z,5.03
2022-09-28T23:16:25.762Z,4.90
2022-09-28T23:18:53.591Z,4.90
2022-09-28T23:21:22.789Z,5.20
2022-09-28T23:23:58.507Z,5.17
2022-09-28T23:26:27.358Z,4.47
2022-09-28T23:28:53.991Z,4.50
2022-09-28T23:31:26.167Z,4.80
2022-09-28T23:33:57.939Z,5.37
2022-09-28T23:36:25.309Z,4.90
2022-09-28T23:41:42.434Z,5.30
2022-09-28T23:44:08.854Z,4.63
2022-09-28T23:46:36.018Z,5.10
2022-09-28T23:49:02.558Z,5.33
2022-09-28T23:51:29.105Z,5.23
2022-09-28T23:53:55.663Z,4.77
2022-09-28T23:56:22.191Z,4.67
2022-09-28T23:58:48.736Z,4.60
